Time;durP1;ratioP1;P1;durP2;ratioP2;P2;SDS_P1;SDS_P2;PMS_P1;PMS_P2;Temp;Humidity;BMP_temperature;BMP_pressure;BME280_temperature;BME280_humidity;BME280_pressure;Samples;Min_cycle;Max_cycle;Signal;HPM_P1;HPM_P2
2024/01/08 00:00:56;;;;;;;5.03;2.92;;;-1.60;99.90;;;;;;5110179;28;20024;-95
2024/01/08 00:03:22;;;;;;;5.75;2.53;;;-1.50;99.90;;;;;;5106877;28;20039;-93
2024/01/08 00:05:48;;;;;;;5.63;3.38;;;-1.50;99.90;;;;;;5102525;28;20020;-94
2024/01/08 00:08:14;;;;;;;5.28;3.30;;;-1.60;99.90;;;;;;5102361;28;20030;-93
2024/01/08 00:10:40;;;;;;;4.63;3.08;;;-1.60;99.90;;;;;;5110237;28;20032;-95
2024/01/08 00:13:06;;;;;;;6.90;3.60;;;-1.50;99.90;;;;;;5102888;28;20085;-94
2024/01/08 00:15:32;;;;;;;3.72;1.85;;;-1.50;99.90;;;;;;5096771;28;20041;-93
2024/01/08 00:17:57;;;;;;;5.28;3.20;;;-1.50;99.90;;;;;;5097614;28;20024;-95
2024/01/08 00:20:23;;;;;;;5.13;3.08;;;-1.50;99.90;;;;;;5093101;28;20030;-94
2024/01/08 00:22:49;;;;;;;6.72;2.83;;;-1.50;99.90;;;;;;5105724;28;20027;-95
2024/01/08 00:25:14;;;;;;;8.15;3.90;;;-1.50;99.90;;;;;;5104069;28;20082;-95
2024/01/08 00:27:41;;;;;;;6.57;3.35;;;-1.50;99.90;;;;;;5126873;28;20027;-94
2024/01/08 00:30:08;;;;;;;6.03;3.60;;;-1.50;99.90;;;;;;5106405;28;20083;-95
2024/01/08 00:32:33;;;;;;;5.13;2.83;;;-1.50;99.90;;;;;;5077311;28;20032;-94
2024/01/08 00:34:59;;;;;;;4.38;2.53;;;-1.40;99.90;;;;;;5103848;28;20508;-93
2024/01/08 00:37:25;;;;;;;6.75;4.22;;;-1.40;99.90;;;;;;5108146;28;20035;-94
2024/01/08 00:39:50;;;;;;;8.20;4.43;;;-1.40;99.90;;;;;;5097934;28;20020;-94
2024/01/08 00:42:17;;;;;;;5.72;3.70;;;-1.30;99.90;;;;;;5111370;28;20024;-94
2024/01/08 00:44:43;;;;;;;6.55;4.00;;;-1.30;99.90;;;;;;5116360;28;20039;-94
2024/01/08 00:47:09;;;;;;;6.68;4.43;;;-1.30;99.90;;;;;;5093053;28;20050;-94
2024/01/08 00:49:34;;;;;;;6.47;4.38;;;-1.40;99.90;;;;;;5098356;28;20046;-94
2024/01/08 00:52:00;;;;;;;6.40;3.83;;;-1.60;99.90;;;;;;5108426;28;20050;-94
2024/01/08 00:54:27;;;;;;;6.30;3.85;;;-1.60;99.90;;;;;;5110759;28;20024;-95
2024/01/08 00:56:53;;;;;;;4.93;2.70;;;-1.70;99.90;;;;;;5110077;28;20028;-96
2024/01/08 00:59:18;;;;;;;5.72;3.22;;;-1.80;99.90;;;;;;5093971;28;20062;-95
2024/01/08 01:01:44;;;;;;;4.43;3.28;;;-1.90;99.90;;;;;;5101055;28;20036;-94
2024/01/08 01:04:10;;;;;;;5.70;3.60;;;-1.90;99.90;;;;;;5080029;28;20023;-93
2024/01/08 01:06:36;;;;;;;7.13;3.35;;;-1.90;99.90;;;;;;5109288;28;20051;-95
2024/01/08 01:09:02;;;;;;;6.72;3.17;;;-2.00;99.90;;;;;;5106610;28;20031;-95
2024/01/08 01:11:28;;;;;;;5.60;3.53;;;-2.00;99.90;;;;;;5109491;28;20046;-94
2024/01/08 01:13:54;;;;;;;6.63;3.38;;;-2.10;99.90;;;;;;5095283;28;20036;-95
2024/01/08 01:16:20;;;;;;;4.53;3.25;;;-2.10;99.90;;;;;;5098045;28;20103;-94
2024/01/08 01:18:46;;;;;;;7.57;3.03;;;-2.10;99.90;;;;;;5100131;28;20035;-95
2024/01/08 01:21:21;;;;;;;5.82;3.47;;;-2.10;99.90;;;;;;5093225;28;20034;-95
2024/01/08 01:23:50;;;;;;;6.50;3.45;;;-2.20;99.90;;;;;;5108968;28;20086;-94
2024/01/08 01:26:16;;;;;;;6.85;3.67;;;-2.20;99.90;;;;;;5110910;28;20054;-94
2024/01/08 01:28:42;;;;;;;7.22;3.72;;;-2.20;99.90;;;;;;5111913;28;20024;-95
2024/01/08 01:31:11;;;;;;;8.00;3.45;;;-2.30;99.90;;;;;;5109974;28;20035;-95
2024/01/08 01:33:37;;;;;;;5.78;3.22;;;-2.30;99.90;;;;;;5127184;28;20044;-94
2024/01/08 01:36:04;;;;;;;5.32;3.38;;;-2.30;99.90;;;;;;5102839;28;20046;-94
2024/01/08 01:38:30;;;;;;;5.57;3.13;;;-2.30;99.90;;;;;;5089447;28;20024;-94
2024/01/08 01:40:55;;;;;;;9.40;3.20;;;-2.40;99.90;;;;;;5103992;28;20027;-94
2024/01/08 01:43:25;;;;;;;4.43;2.38;;;-2.40;99.90;;;;;;5109592;28;20032;-94
2024/01/08 01:45:54;;;;;;;7.68;3.03;;;-2.40;99.90;;;;;;5098524;28;20044;-94
2024/01/08 01:48:21;;;;;;;7.00;3.55;;;-2.40;99.90;;;;;;5106908;28;20024;-94
2024/01/08 01:50:47;;;;;;;6.53;2.53;;;-2.40;99.90;;;;;;5097318;28;20031;-94
2024/01/08 01:53:13;;;;;;;8.98;3.63;;;-2.40;99.90;;;;;;5096227;28;20040;-94
2024/01/08 01:55:42;;;;;;;5.80;2.70;;;-2.40;99.90;;;;;;5103022;28;20039;-93
2024/01/08 01:58:11;;;;;;;6.15;3.22;;;-2.40;99.90;;;;;;5085885;28;20055;-95
2024/01/08 02:00:37;;;;;;;7.32;3.63;;;-2.40;99.90;;;;;;5099872;28;20056;-94
2024/01/08 02:03:06;;;;;;;5.95;3.35;;;-2.40;99.90;;;;;;5107428;28;20039;-95
2024/01/08 02:05:33;;;;;;;5.45;2.75;;;-2.50;99.90;;;;;;5106539;28;20020;-95
2024/01/08 02:07:59;;;;;;;7.75;3.78;;;-2.40;99.90;;;;;;5078026;28;20041;-94
2024/01/08 02:10:26;;;;;;;5.97;2.90;;;-2.50;99.90;;;;;;5097822;28;20020;-95
2024/01/08 02:12:53;;;;;;;8.98;3.50;;;-2.40;99.90;;;;;;5099724;28;20032;-94
2024/01/08 02:15:21;;;;;;;8.10;3.22;;;-2.50;99.90;;;;;;5097166;28;20032;-94
2024/01/08 02:17:47;;;;;;;9.00;3.45;;;-2.50;99.90;;;;;;5075634;28;20056;-94
2024/01/08 02:20:13;;;;;;;7.03;3.13;;;-2.50;99.90;;;;;;5107866;28;20028;-94
2024/01/08 02:22:43;;;;;;;6.57;3.53;;;-2.50;99.90;;;;;;5107735;28;20093;-94
2024/01/08 02:25:12;;;;;;;9.95;4.03;;;-2.50;99.90;;;;;;5092692;28;20443;-95
2024/01/08 02:27:43;;;;;;;8.80;3.83;;;-2.60;99.90;;;;;;5109497;28;20028;-96
2024/01/08 02:30:19;;;;;;;8.65;3.63;;;-2.60;99.90;;;;;;5108071;28;20085;-95
2024/01/08 02:32:45;;;;;;;10.05;3.80;;;-2.60;99.90;;;;;;5088412;28;20047;-95
2024/01/08 02:35:11;;;;;;;6.30;3.13;;;-2.60;99.90;;;;;;5113023;28;20020;-95
2024/01/08 02:37:37;;;;;;;7.75;3.08;;;-2.60;99.90;;;;;;5101062;28;20029;-94
2024/01/08 02:40:03;;;;;;;7.82;2.97;;;-2.70;99.90;;;;;;5100127;28;20072;-94
2024/01/08 02:42:37;;;;;;;7.82;3.65;;;-2.70;99.90;;;;;;5107121;28;20032;-95
2024/01/08 02:45:03;;;;;;;9.27;4.28;;;-2.70;99.90;;;;;;5119564;28;20122;-95
2024/01/08 02:47:37;;;;;;;7.47;3.72;;;-2.70;99.90;;;;;;5114810;28;20031;-94
2024/01/08 02:50:15;;;;;;;8.57;3.53;;;-2.70;99.90;;;;;;5099148;28;20492;-96
2024/01/08 02:52:44;;;;;;;9.05;4.28;;;-2.80;99.90;;;;;;5110769;28;20048;-95
2024/01/08 02:55:11;;;;;;;9.93;3.55;;;-2.80;99.90;;;;;;5102018;28;20473;-94
2024/01/08 02:57:44;;;;;;;7.70;3.58;;;-2.80;99.90;;;;;;5096884;28;20040;-95
2024/01/08 03:00:11;;;;;;;6.65;3.33;;;-2.90;99.90;;;;;;5114872;28;20024;-96
2024/01/08 03:02:42;;;;;;;8.13;3.88;;;-2.90;99.90;;;;;;5076010;28;20086;-95
2024/01/08 03:05:08;;;;;;;6.43;3.15;;;-2.90;99.90;;;;;;5108696;28;20032;-95
2024/01/08 03:07:35;;;;;;;9.00;3.78;;;-2.90;99.90;;;;;;5113462;28;20052;-94
2024/01/08 03:10:01;;;;;;;8.15;4.05;;;-2.90;99.90;;;;;;5093221;28;20059;-95
2024/01/08 03:12:27;;;;;;;9.00;3.53;;;-2.90;99.90;;;;;;5100818;28;20032;-95
2024/01/08 03:14:53;;;;;;;8.38;4.38;;;-2.90;99.90;;;;;;5112895;28;20024;-94
2024/01/08 03:17:19;;;;;;;8.52;3.85;;;-2.80;99.90;;;;;;5113580;28;20032;-95
2024/01/08 03:19:46;;;;;;;6.78;3.03;;;-2.80;99.90;;;;;;5113813;28;20028;-95
2024/01/08 03:22:17;;;;;;;7.28;3.47;;;-2.80;99.90;;;;;;5109006;28;20023;-94
2024/01/08 03:24:43;;;;;;;7.63;3.97;;;-2.70;99.90;;;;;;5105129;28;20040;-94
2024/01/08 03:27:09;;;;;;;9.88;4.65;;;-2.60;99.90;;;;;;5076310;28;20400;-94
2024/01/08 03:29:35;;;;;;;7.93;4.03;;;-2.60;99.90;;;;;;5099339;28;20047;-95
2024/01/08 03:32:05;;;;;;;8.65;3.90;;;-2.50;99.90;;;;;;5089671;28;20120;-95
2024/01/08 03:34:32;;;;;;;11.05;3.78;;;-2.50;99.90;;;;;;5117435;28;20015;-95
2024/01/08 03:36:58;;;;;;;10.82;3.95;;;-2.50;99.90;;;;;;5103269;28;20036;-96
2024/01/08 03:39:25;;;;;;;8.40;4.20;;;-2.40;99.90;;;;;;5110597;28;20067;-94
2024/01/08 03:41:51;;;;;;;6.40;3.75;;;-2.40;99.90;;;;;;5111177;28;20020;-95
2024/01/08 03:44:16;;;;;;;9.30;3.60;;;-2.40;99.90;;;;;;5072090;28;20069;-95
2024/01/08 03:46:42;;;;;;;6.95;3.15;;;-2.30;99.90;;;;;;5073020;28;20082;-95
2024/01/08 03:49:08;;;;;;;7.95;3.42;;;-2.30;99.90;;;;;;5085377;28;20021;-95
2024/01/08 03:51:35;;;;;;;7.65;2.92;;;-2.30;99.90;;;;;;5081835;28;20024;-95
2024/01/08 03:54:01;;;;;;;8.23;4.00;;;-2.30;99.90;;;;;;5079588;28;20048;-94
2024/01/08 03:56:27;;;;;;;6.82;3.03;;;-2.20;99.90;;;;;;5078026;28;20033;-94
2024/01/08 03:58:52;;;;;;;8.43;3.10;;;-2.20;99.90;;;;;;5076002;28;20037;-95
2024/01/08 04:01:19;;;;;;;10.32;3.85;;;-2.20;99.90;;;;;;5071250;28;20093;-95
2024/01/08 04:03:44;;;;;;;9.80;3.78;;;-2.20;99.90;;;;;;5088922;28;20032;-95
2024/01/08 04:06:10;;;;;;;9.73;4.38;;;-2.20;99.90;;;;;;5088201;28;20040;-95
2024/01/08 04:08:36;;;;;;;8.43;3.70;;;-2.20;99.90;;;;;;5083750;28;20079;-96
2024/01/08 04:11:03;;;;;;;8.07;3.50;;;-2.20;99.90;;;;;;5089627;28;20024;-95
2024/01/08 04:13:31;;;;;;;10.85;4.20;;;-2.20;99.90;;;;;;5077227;28;20037;-96
2024/01/08 04:15:57;;;;;;;8.55;3.92;;;-2.10;99.90;;;;;;5078754;28;20066;-95
2024/01/08 04:18:25;;;;;;;7.30;3.25;;;-2.10;99.90;;;;;;5088748;28;20115;-94
2024/01/08 04:20:51;;;;;;;7.55;3.63;;;-2.10;99.90;;;;;;5080817;28;20036;-94
2024/01/08 04:23:17;;;;;;;7.53;3.47;;;-2.10;99.90;;;;;;5089069;28;20054;-95
2024/01/08 04:25:44;;;;;;;7.78;3.60;;;-2.10;99.90;;;;;;5063596;28;20082;-95
2024/01/08 04:28:10;;;;;;;11.95;4.07;;;-2.10;99.90;;;;;;5086453;28;20029;-95
2024/01/08 04:30:37;;;;;;;7.10;3.75;;;-2.10;99.90;;;;;;5072691;28;20029;-94
2024/01/08 04:33:04;;;;;;;6.88;3.20;;;-2.10;99.90;;;;;;5077453;28;20054;-96
2024/01/08 04:35:29;;;;;;;8.27;3.80;;;-2.10;99.90;;;;;;5071703;28;20032;-95
2024/01/08 04:37:55;;;;;;;7.45;3.58;;;-2.00;99.90;;;;;;5072652;28;20036;-94
2024/01/08 04:40:20;;;;;;;7.95;4.07;;;-2.00;99.90;;;;;;5067130;28;20074;-95
2024/01/08 04:42:46;;;;;;;9.68;4.28;;;-2.00;99.90;;;;;;5076350;28;20029;-96
2024/01/08 04:45:12;;;;;;;7.78;3.80;;;-2.00;99.90;;;;;;5094695;28;20058;-95
2024/01/08 04:47:38;;;;;;;9.35;4.75;;;-2.00;99.90;;;;;;5102155;28;20082;-95
2024/01/08 04:50:05;;;;;;;8.65;3.22;;;-1.90;99.90;;;;;;5104420;28;20020;-96
2024/01/08 04:52:32;;;;;;;9.20;4.82;;;-2.00;99.90;;;;;;5096476;28;20033;-95
2024/01/08 04:54:58;;;;;;;7.65;3.97;;;-1.90;99.90;;;;;;5072723;28;20028;-96
2024/01/08 04:57:24;;;;;;;11.20;4.80;;;-1.90;99.90;;;;;;5103968;28;20063;-95
2024/01/08 04:59:50;;;;;;;11.57;4.90;;;-1.90;99.90;;;;;;5098043;28;20019;-95
2024/01/08 05:02:16;;;;;;;7.80;4.82;;;-1.90;99.90;;;;;;5099135;28;20087;-95
2024/01/08 05:04:42;;;;;;;10.55;4.30;;;-1.90;99.90;;;;;;5090772;28;20036;-96
2024/01/08 05:07:08;;;;;;;8.73;3.78;;;-1.90;99.90;;;;;;5090783;28;20043;-95
2024/01/08 05:09:37;;;;;;;12.38;5.38;;;-1.80;99.90;;;;;;5087791;28;20031;-94
2024/01/08 05:12:03;;;;;;;10.00;4.95;;;-1.90;99.90;;;;;;5088687;28;20024;-94
2024/01/08 05:14:28;;;;;;;9.52;4.72;;;-1.90;99.90;;;;;;5085942;28;20027;-95
2024/01/08 05:16:54;;;;;;;7.70;3.88;;;-1.80;99.90;;;;;;5088152;28;20025;-94
2024/01/08 05:19:19;;;;;;;11.38;5.00;;;-1.80;99.90;;;;;;5085850;28;20021;-95
2024/01/08 05:21:45;;;;;;;11.93;4.80;;;-1.80;99.90;;;;;;5090895;28;20020;-96
2024/01/08 05:24:11;;;;;;;10.25;4.90;;;-1.70;99.90;;;;;;5091097;28;20020;-95
2024/01/08 05:26:37;;;;;;;11.63;5.22;;;-1.80;99.90;;;;;;5084404;28;20024;-96
2024/01/08 05:29:03;;;;;;;12.15;5.20;;;-1.70;99.90;;;;;;5082996;28;20377;-95
2024/01/08 05:31:28;;;;;;;12.70;5.03;;;-1.70;99.90;;;;;;5083956;28;20044;-95
2024/01/08 05:33:54;;;;;;;10.27;4.50;;;-1.70;99.90;;;;;;5085152;28;20024;-95
2024/01/08 05:36:19;;;;;;;9.20;4.38;;;-1.70;99.90;;;;;;5084509;28;20028;-95
2024/01/08 05:38:45;;;;;;;11.93;5.25;;;-1.70;99.90;;;;;;5081819;28;20107;-95
2024/01/08 05:41:10;;;;;;;10.13;5.05;;;-1.70;99.90;;;;;;5082817;28;20024;-95
2024/01/08 05:43:39;;;;;;;11.13;5.70;;;-1.70;99.90;;;;;;5083124;28;20073;-95
2024/01/08 05:46:07;;;;;;;12.00;6.45;;;-1.60;99.90;;;;;;5080837;28;20488;-95
2024/01/08 05:48:37;;;;;;;11.93;5.28;;;-1.60;99.90;;;;;;5088023;28;20475;-95
2024/01/08 05:51:09;;;;;;;12.88;5.85;;;-1.60;99.90;;;;;;5093175;28;20118;-94
2024/01/08 05:53:35;;;;;;;10.80;6.05;;;-1.60;99.90;;;;;;5091276;28;20111;-94
2024/01/08 05:56:02;;;;;;;10.23;4.40;;;-1.60;99.90;;;;;;5091630;28;20114;-95
2024/01/08 05:58:28;;;;;;;11.48;5.60;;;-1.60;99.90;;;;;;5094104;28;20032;-94
2024/01/08 06:00:54;;;;;;;11.35;5.57;;;-1.60;99.90;;;;;;5093531;28;20042;-95
2024/01/08 06:03:20;;;;;;;9.52;5.07;;;-1.60;99.90;;;;;;5087195;28;20074;-94
2024/01/08 06:05:46;;;;;;;12.35;5.47;;;-1.60;99.90;;;;;;5086279;28;20024;-96
2024/01/08 06:08:12;;;;;;;11.25;5.78;;;-1.60;99.90;;;;;;5081231;28;20027;-95
2024/01/08 06:10:38;;;;;;;12.15;5.80;;;-1.50;99.90;;;;;;5107509;28;20048;-94
2024/01/08 06:13:05;;;;;;;10.70;5.40;;;-1.50;99.90;;;;;;5076749;28;20039;-95
2024/01/08 06:15:31;;;;;;;13.23;5.75;;;-1.60;99.90;;;;;;5091296;28;20023;-94
2024/01/08 06:17:56;;;;;;;11.73;5.78;;;-1.50;99.90;;;;;;5085862;28;20032;-95
2024/01/08 06:20:22;;;;;;;14.25;5.95;;;-1.60;99.90;;;;;;5085261;28;20024;-94
2024/01/08 06:22:47;;;;;;;12.40;4.80;;;-1.50;99.90;;;;;;5091248;28;20048;-95
2024/01/08 06:25:13;;;;;;;11.98;5.28;;;-1.50;99.90;;;;;;5094697;28;20027;-95
2024/01/08 06:27:39;;;;;;;15.88;6.25;;;-1.50;99.90;;;;;;5091201;28;20077;-95
2024/01/08 06:30:05;;;;;;;9.93;5.47;;;-1.50;99.90;;;;;;5093531;28;20020;-94
2024/01/08 06:32:30;;;;;;;12.52;5.70;;;-1.50;99.90;;;;;;5093211;28;20062;-95
2024/01/08 06:34:56;;;;;;;14.35;7.25;;;-1.50;99.90;;;;;;5093420;28;20024;-95
2024/01/08 06:37:22;;;;;;;10.50;5.18;;;-1.50;99.90;;;;;;5089841;28;20042;-94
2024/01/08 06:39:47;;;;;;;13.05;5.90;;;-1.50;99.90;;;;;;5082278;28;20023;-94
2024/01/08 06:42:13;;;;;;;13.18;5.80;;;-1.50;99.90;;;;;;5087749;28;20582;-94
2024/01/08 06:44:39;;;;;;;14.70;6.70;;;-1.50;99.90;;;;;;5089945;28;20128;-94
2024/01/08 06:47:05;;;;;;;14.68;6.40;;;-1.40;99.90;;;;;;5086687;28;20028;-94
2024/01/08 06:49:30;;;;;;;10.43;4.88;;;-1.40;99.90;;;;;;5093357;28;20016;-95
2024/01/08 06:51:58;;;;;;;12.63;6.40;;;-1.40;99.90;;;;;;5094044;28;20027;-95
2024/01/08 06:54:23;;;;;;;12.00;5.85;;;-1.40;99.90;;;;;;5086192;28;20047;-95
2024/01/08 06:56:49;;;;;;;11.07;5.60;;;-1.40;99.90;;;;;;5088526;28;20032;-95
2024/01/08 06:59:15;;;;;;;13.23;6.07;;;-1.40;99.90;;;;;;5083190;28;20059;-95
2024/01/08 07:01:41;;;;;;;12.55;6.40;;;-1.30;99.90;;;;;;5090945;28;20019;-94
2024/01/08 07:04:06;;;;;;;12.77;5.90;;;-1.30;99.90;;;;;;5086826;28;20476;-95
2024/01/08 07:06:32;;;;;;;13.13;5.38;;;-1.30;99.90;;;;;;5085836;28;20024;-95
2024/01/08 07:08:58;;;;;;;12.63;6.72;;;-1.40;99.90;;;;;;5083924;28;20122;-94
2024/01/08 07:11:25;;;;;;;12.57;5.80;;;-1.30;99.90;;;;;;5082206;28;20020;-94
2024/01/08 07:13:50;;;;;;;10.68;5.15;;;-1.30;99.90;;;;;;5105552;28;20085;-94
2024/01/08 07:16:17;;;;;;;11.27;5.18;;;-1.30;99.90;;;;;;5094330;28;20024;-93
2024/01/08 07:18:43;;;;;;;9.95;4.57;;;-1.30;99.90;;;;;;5090379;27;20027;-96
2024/01/08 07:21:11;;;;;;;12.52;5.93;;;-1.30;99.90;;;;;;5112634;28;20028;-95
2024/01/08 07:23:37;;;;;;;13.95;5.40;;;-1.30;99.90;;;;;;5095769;28;20044;-94
2024/01/08 07:26:03;;;;;;;12.15;5.00;;;-1.30;99.90;;;;;;5086885;28;20459;-95
2024/01/08 07:28:29;;;;;;;12.15;5.72;;;-1.30;99.90;;;;;;5092750;28;20050;-94
2024/01/08 07:30:54;;;;;;;9.27;4.88;;;-1.30;99.90;;;;;;5097003;28;20062;-93
2024/01/08 07:33:21;;;;;;;10.65;5.10;;;-1.30;99.90;;;;;;5111815;28;20570;-94
2024/01/08 07:35:47;;;;;;;9.80;4.47;;;-1.20;99.90;;;;;;5096955;28;20022;-95
2024/01/08 07:38:12;;;;;;;10.82;5.18;;;-1.20;99.90;;;;;;5093717;28;20020;-93
2024/01/08 07:40:42;;;;;;;9.48;5.53;;;-1.10;99.90;;;;;;5091214;28;20024;-94
2024/01/08 07:43:08;;;;;;;7.57;4.50;;;-1.10;99.90;;;;;;5092561;28;20038;-94
2024/01/08 07:45:33;;;;;;;9.10;4.70;;;-1.00;99.90;;;;;;5090649;28;20036;-94
2024/01/08 07:47:59;;;;;;;8.98;4.32;;;-0.90;99.90;;;;;;5090068;28;20024;-95
2024/01/08 07:50:25;;;;;;;10.32;4.88;;;-0.90;99.90;;;;;;5091914;28;20020;-95
2024/01/08 07:52:51;;;;;;;9.85;4.47;;;-0.90;99.90;;;;;;5095610;28;20106;-94
2024/01/08 07:55:17;;;;;;;9.57;4.07;;;-0.90;99.90;;;;;;5094674;28;20054;-95
2024/01/08 07:57:43;;;;;;;7.78;3.70;;;-0.90;99.90;;;;;;5096841;28;20027;-95
2024/01/08 08:00:11;;;;;;;7.95;3.58;;;-0.90;99.90;;;;;;5095052;28;20035;-95
2024/01/08 08:02:38;;;;;;;10.30;5.03;;;-0.80;99.90;;;;;;5101285;28;20035;-95
2024/01/08 08:05:05;;;;;;;9.73;3.90;;;-0.90;99.90;;;;;;5088706;28;20024;-93
2024/01/08 08:07:32;;;;;;;10.38;3.95;;;-0.90;99.90;;;;;;5091376;28;20040;-95
2024/01/08 08:09:57;;;;;;;10.70;4.53;;;-1.00;99.90;;;;;;5097675;28;20395;-94
2024/01/08 08:12:23;;;;;;;10.55;4.90;;;-1.00;99.90;;;;;;5086393;28;20032;-94
2024/01/08 08:14:49;;;;;;;9.20;4.65;;;-1.00;99.90;;;;;;5093886;28;20058;-94
2024/01/08 08:17:15;;;;;;;9.25;4.05;;;-1.00;99.90;;;;;;5092577;28;20056;-95
2024/01/08 08:19:42;;;;;;;10.55;3.95;;;-1.00;99.90;;;;;;5092927;28;20024;-94
2024/01/08 08:22:11;;;;;;;8.68;3.38;;;-1.00;99.90;;;;;;5091012;28;20491;-95
2024/01/08 08:24:40;;;;;;;8.07;4.18;;;-1.00;99.90;;;;;;5092270;28;20024;-94
2024/01/08 08:27:09;;;;;;;11.75;4.57;;;-1.00;99.90;;;;;;5093359;28;20053;-94
2024/01/08 08:29:38;;;;;;;9.38;4.30;;;-1.00;99.90;;;;;;5087464;28;20020;-94
2024/01/08 08:32:05;;;;;;;12.20;4.10;;;-0.90;99.90;;;;;;5097080;28;20034;-93
2024/01/08 08:34:31;;;;;;;8.35;4.65;;;-1.00;99.90;;;;;;5097323;28;20109;-92
2024/01/08 08:36:57;;;;;;;8.20;4.07;;;-0.90;99.90;;;;;;5113547;28;20372;-95
2024/01/08 08:39:22;;;;;;;6.97;3.63;;;-1.00;99.90;;;;;;5106053;28;20035;-94
2024/01/08 08:41:48;;;;;;;9.30;3.65;;;-0.90;99.90;;;;;;5094923;28;20020;-93
2024/01/08 08:44:14;;;;;;;6.80;3.30;;;-0.90;99.90;;;;;;5100205;28;20050;-92
2024/01/08 08:46:40;;;;;;;7.10;3.38;;;-0.90;99.90;;;;;;5106528;28;20052;-94
2024/01/08 08:49:06;;;;;;;8.88;3.65;;;-0.90;99.90;;;;;;5102282;28;20031;-93
2024/01/08 08:51:34;;;;;;;8.68;4.55;;;-0.90;99.90;;;;;;5100669;28;20039;-95
2024/01/08 08:54:02;;;;;;;11.63;4.60;;;-0.90;99.90;;;;;;5098706;28;20395;-95
2024/01/08 08:56:29;;;;;;;7.20;4.00;;;-0.90;99.90;;;;;;5100192;28;20027;-94
2024/01/08 08:58:54;;;;;;;8.90;3.53;;;-0.90;99.90;;;;;;5106107;28;20242;-94
2024/01/08 09:01:20;;;;;;;8.27;4.50;;;-0.90;99.90;;;;;;5101359;28;20039;-94
2024/01/08 09:03:45;;;;;;;8.90;4.03;;;-0.90;99.90;;;;;;5103249;28;20039;-92
2024/01/08 09:06:11;;;;;;;8.38;4.75;;;-0.80;99.90;;;;;;5105749;28;20034;-94
2024/01/08 09:08:37;;;;;;;9.20;4.13;;;-0.80;99.90;;;;;;5101414;28;20024;-94
2024/01/08 09:11:03;;;;;;;8.23;4.53;;;-0.80;99.90;;;;;;5102006;28;20030;-95
2024/01/08 09:13:28;;;;;;;6.68;3.40;;;-0.80;99.90;;;;;;5101012;28;20107;-94
2024/01/08 09:15:54;;;;;;;8.52;3.60;;;-0.80;99.90;;;;;;5102336;28;20020;-94
2024/01/08 09:18:26;;;;;;;8.00;4.25;;;-0.80;99.90;;;;;;5103796;28;20027;-93
2024/01/08 09:20:54;;;;;;;9.13;4.45;;;-0.80;99.90;;;;;;5103239;28;20514;-95
2024/01/08 09:23:22;;;;;;;8.85;4.63;;;-0.80;99.90;;;;;;5099755;28;20149;-91
2024/01/08 09:25:48;;;;;;;8.32;4.53;;;-0.80;99.90;;;;;;5112326;28;20031;-90
2024/01/08 09:28:13;;;;;;;10.70;4.55;;;-0.70;99.90;;;;;;5099073;28;20024;-90
2024/01/08 09:30:39;;;;;;;14.73;5.32;;;-0.70;99.90;;;;;;5100995;28;20095;-95
2024/01/08 09:33:05;;;;;;;8.18;4.30;;;-0.70;99.90;;;;;;5107560;28;20514;-96
2024/01/08 09:35:32;;;;;;;11.15;5.57;;;-0.80;99.90;;;;;;5106379;28;20099;-93
2024/01/08 09:37:59;;;;;;;9.93;5.03;;;-0.70;99.90;;;;;;5105048;28;20052;-95
2024/01/08 09:40:24;;;;;;;9.32;5.00;;;-0.70;99.90;;;;;;5102693;28;20078;-92
2024/01/08 09:42:52;;;;;;;9.38;4.93;;;-0.80;99.90;;;;;;5098338;28;20027;-95
2024/01/08 09:45:29;;;;;;;13.43;5.75;;;-0.80;99.90;;;;;;5093982;28;20114;-94
2024/01/08 09:47:55;;;;;;;10.65;5.43;;;-0.90;99.90;;;;;;5099014;28;20024;-91
2024/01/08 09:50:22;;;;;;;11.20;5.80;;;-0.90;99.90;;;;;;5098164;28;20024;-96
2024/01/08 09:52:49;;;;;;;9.73;4.40;;;-0.90;99.90;;;;;;5055772;28;20040;-95
2024/01/08 09:55:16;;;;;;;8.85;5.55;;;-0.90;99.90;;;;;;5043455;28;20408;-95
2024/01/08 09:57:42;;;;;;;9.95;5.10;;;-0.90;99.90;;;;;;5040882;28;20040;-95
2024/01/08 10:00:09;;;;;;;10.55;4.53;;;-0.90;99.90;;;;;;5045856;28;20029;-96
2024/01/08 10:02:35;;;;;;;9.85;5.32;;;-0.90;99.90;;;;;;5043890;28;20029;-93
2024/01/08 10:05:01;;;;;;;13.18;5.78;;;-0.80;99.90;;;;;;5046041;28;20097;-94
2024/01/08 10:07:26;;;;;;;6.45;3.97;;;-0.70;99.90;;;;;;5046658;28;20029;-95
2024/01/08 10:09:52;;;;;;;6.07;3.47;;;-0.50;99.90;;;;;;5042352;28;20021;-95
2024/01/08 10:12:18;;;;;;;9.20;4.47;;;-0.50;99.90;;;;;;5041782;28;20046;-96
2024/01/08 10:14:46;;;;;;;6.90;3.83;;;-0.50;99.90;;;;;;5047557;28;20029;-96
2024/01/08 10:17:14;;;;;;;6.68;3.58;;;-0.50;99.90;;;;;;5047784;28;20096;-96
2024/01/08 10:19:40;;;;;;;10.60;4.20;;;-0.50;99.90;;;;;;5045382;28;20021;-95
2024/01/08 10:22:13;;;;;;;8.85;4.07;;;-0.40;99.90;;;;;;5044065;28;20032;-95
2024/01/08 10:24:40;;;;;;;6.53;3.10;;;-0.40;99.90;;;;;;5045665;28;20037;-95
2024/01/08 10:27:11;;;;;;;9.20;4.07;;;-0.40;99.90;;;;;;5038822;28;20064;-95
2024/01/08 10:29:38;;;;;;;7.47;4.00;;;-0.40;99.90;;;;;;5048580;28;20032;-94
2024/01/08 10:32:07;;;;;;;7.75;4.25;;;-0.40;99.90;;;;;;5094847;28;20027;-94
2024/01/08 10:34:36;;;;;;;6.13;3.47;;;-0.30;99.90;;;;;;5097540;28;20028;-95
2024/01/08 10:37:03;;;;;;;7.80;4.13;;;-0.30;99.90;;;;;;5103187;28;20024;-94
2024/01/08 10:39:32;;;;;;;8.57;4.32;;;-0.30;99.90;;;;;;5099290;28;20024;-96
2024/01/08 10:41:58;;;;;;;12.32;5.18;;;-0.30;99.90;;;;;;5100003;28;20028;-96
2024/01/08 10:44:27;;;;;;;5.60;3.30;;;-0.20;99.90;;;;;;5089678;28;20542;-95
2024/01/08 10:47:06;;;;;;;7.10;3.78;;;-0.20;99.90;;;;;;5069408;28;20033;-95
2024/01/08 10:49:33;;;;;;;6.25;3.03;;;-0.20;99.90;;;;;;5067586;28;20097;-96
2024/01/08 10:52:14;;;;;;;7.75;4.10;;;-0.20;99.90;;;;;;5068475;28;20028;-96
2024/01/08 10:54:48;;;;;;;7.68;3.67;;;-0.20;99.90;;;;;;5076009;28;20294;-93
2024/01/08 10:57:17;;;;;;;8.00;4.10;;;-0.20;99.90;;;;;;5071576;28;20029;-95
2024/01/08 10:59:45;;;;;;;6.40;3.75;;;-0.30;99.90;;;;;;5067970;28;20025;-93
2024/01/08 11:02:14;;;;;;;8.90;5.25;;;-0.20;99.90;;;;;;5068359;28;20055;-93
2024/01/08 11:04:42;;;;;;;7.18;3.47;;;-0.20;99.90;;;;;;5070021;28;20027;-93
2024/01/08 11:07:15;;;;;;;6.15;3.13;;;-0.30;99.90;;;;;;5068062;28;20048;-94
2024/01/08 11:09:41;;;;;;;7.20;3.88;;;-0.30;99.90;;;;;;5067028;28;20028;-93
2024/01/08 11:12:10;;;;;;;7.05;2.75;;;-0.40;99.90;;;;;;5066407;28;20036;-93
2024/01/08 11:14:38;;;;;;;10.07;3.70;;;-0.40;99.90;;;;;;5069052;28;20523;-94
2024/01/08 11:17:08;;;;;;;5.68;3.55;;;-0.40;99.90;;;;;;5064511;28;20472;-92
2024/01/08 11:19:40;;;;;;;7.10;3.63;;;-0.40;99.90;;;;;;5067512;28;20026;-93
2024/01/08 11:22:10;;;;;;;5.88;2.65;;;-0.40;99.90;;;;;;5063421;28;20054;-92
2024/01/08 11:24:36;;;;;;;6.35;3.22;;;-0.40;99.90;;;;;;5068908;28;20035;-93
2024/01/08 11:27:02;;;;;;;6.18;2.35;;;-0.40;99.90;;;;;;5075634;28;20028;-94
2024/01/08 11:29:27;;;;;;;5.10;2.85;;;-0.30;99.90;;;;;;5069388;28;20161;-93
2024/01/08 11:32:31;;;;;;;5.28;2.45;;;-0.30;99.90;;;;;;5072227;28;20024;-95
2024/01/08 11:35:03;;;;;;;6.82;3.10;;;-0.20;99.90;;;;;;5058206;28;20496;-94
2024/01/08 11:37:41;;;;;;;4.95;2.83;;;-0.10;99.90;;;;;;5067919;28;20086;-93
2024/01/08 11:40:15;;;;;;;7.50;2.13;;;0.10;99.90;;;;;;5067130;28;20370;-92
2024/01/08 11:42:42;;;;;;;6.65;3.53;;;0.20;99.90;;;;;;5074546;28;20036;-94
2024/01/08 11:45:08;;;;;;;5.68;2.60;;;0.20;99.90;;;;;;5080326;28;20056;-94
2024/01/08 11:47:35;;;;;;;4.80;2.95;;;0.20;99.90;;;;;;5067785;28;20496;-93
2024/01/08 11:50:01;;;;;;;6.20;3.17;;;0.20;99.90;;;;;;5067161;28;20032;-93
2024/01/08 11:52:27;;;;;;;7.10;3.95;;;0.30;99.90;;;;;;5073531;28;20606;-94
2024/01/08 11:54:57;;;;;;;8.27;3.15;;;0.30;99.90;;;;;;5070744;28;20040;-94
2024/01/08 11:57:23;;;;;;;6.50;2.78;;;0.30;99.90;;;;;;5052529;28;20047;-92
2024/01/08 11:59:49;;;;;;;4.47;2.58;;;0.30;99.90;;;;;;5066646;28;20137;-92
2024/01/08 12:02:19;;;;;;;6.38;2.97;;;0.20;99.90;;;;;;5070182;28;20559;-93
2024/01/08 12:04:58;;;;;;;6.35;3.35;;;0.20;99.90;;;;;;5074869;28;20029;-94
2024/01/08 12:07:26;;;;;;;9.10;3.60;;;0.10;99.90;;;;;;5074321;28;20036;-92
2024/01/08 12:09:51;;;;;;;5.35;2.10;;;0.20;99.90;;;;;;5067131;28;20032;-93
2024/01/08 12:12:18;;;;;;;5.30;2.78;;;0.10;99.90;;;;;;5071337;28;20070;-94
2024/01/08 12:14:46;;;;;;;4.40;2.05;;;0.10;99.90;;;;;;5061799;28;20045;-93
2024/01/08 12:17:14;;;;;;;6.93;2.70;;;0.10;99.90;;;;;;5069788;28;20510;-94
2024/01/08 12:19:42;;;;;;;4.13;1.98;;;0.00;99.90;;;;;;5073944;28;20040;-93
2024/01/08 12:22:12;;;;;;;4.32;2.20;;;-0.10;99.90;;;;;;5063347;28;20473;-95
2024/01/08 12:24:43;;;;;;;5.38;2.53;;;-0.10;99.90;;;;;;5072365;28;20025;-95
2024/01/08 12:27:09;;;;;;;6.00;2.55;;;0.00;99.90;;;;;;5068682;28;20365;-94
2024/01/08 12:29:38;;;;;;;6.25;2.50;;;0.00;99.90;;;;;;5068305;28;20016;-94
2024/01/08 12:32:06;;;;;;;4.85;2.22;;;0.10;99.90;;;;;;5074640;28;20384;-92
2024/01/08 12:34:32;;;;;;;4.60;2.00;;;0.20;99.90;;;;;;5074001;28;20052;-92
2024/01/08 12:36:59;;;;;;;3.65;1.80;;;0.20;99.90;;;;;;5074945;28;20074;-93
2024/01/08 12:39:29;;;;;;;2.92;1.77;;;0.20;99.90;;;;;;5073566;28;20492;-93
2024/01/08 12:41:58;;;;;;;4.43;2.00;;;0.20;99.90;;;;;;5075544;28;20035;-92
2024/01/08 12:44:28;;;;;;;4.32;1.55;;;0.10;99.90;;;;;;5064274;28;20044;-92